Terminal Aerodrome Forecast
Issued by NWS Central Illinois

Home | Current Version | Previous Version | Text Only | Print | Product List | Glossary On
Versions: 1 2 3 4 5 6 7 8 9 10 11 12 13 14 15 16 17 18 19 20 21 22 23 24 25 26
000
FTUS43 KILX 200603 AAA
TAFPIA
TAF AMD
KPIA 200603Z 2006/2106 20009KT P6SM BKN250
     FM200900 20010KT P6SM BKN250 WS020/23040KT
     FM201500 20014KT P6SM BKN250
     FM201800 21016G25KT P6SM SCT250
     FM210000 20015KT P6SM BKN200=

USA.gov is the U.S. government's official web portal to all federal, state and local government web resources and services.